Golden Odyssey — ZCEQ8 — position and weather

sailwx.info

Track history (hours):
 
Tides and Currents Weather Stations Pressure Air Temp Water Temp Dewpoint Dewpoint Depression Visibility Wind Speed Wind Dir Waves Ship Positions

Golden Odyssey

Last reported at 2017-Sep-02 12:59 UTC. Time now 2017-Sep-22 04:39 UTC.
Position N 37°55' E 016°16'.
Warning: this ship's position is 19 days out of date.

Length 124 m; draft 4.9 m.

Type: Pleasure craft. MMSI: 310724000.

Date/timePositionNaut miles runAvg speedWind from/ knotsBaromVisibWave heightAir tempDewpointWater temp
2017-Sep-02 12:59N 37°55' E 016°16'612.6
2017-Sep-02 12:29N 37°53' E 016°09'612.3
2017-Sep-02 11:58N 37°51' E 016°01'612.4
2017-Sep-02 11:30N 37°51' E 015°54'612.2
2017-Sep-02 11:01N 37°51' E 015°46'611.7
2017-Sep-02 10:30N 37°54' E 015°39'510.1
2017-Sep-02 10:01N 37°58' E 015°35'611.6
2017-Sep-02 09:30N 38°03' E 015°34'611.9
2017-Sep-02 09:00N 38°09' E 015°35'611.4
2017-Sep-02 08:30N 38°15' E 015°37'510.6
2017-Sep-02 08:01N 38°20' E 015°39'612.9
2017-Sep-02 07:31N 38°25' E 015°35'712.8
2017-Sep-02 07:00N 38°31' E 015°31'612.6
2017-Sep-02 06:30N 38°36' E 015°26'712.7
2017-Sep-02 05:59N 38°41' E 015°21'612.6
2017-Sep-02 05:31N 38°44' E 015°15'7 3.1
2017-Sep-02 03:19N 38°51' E 015°11'1 4.0
2017-Sep-02 03:01N 38°52' E 015°11'4 7.1
2017-Sep-02 02:28N 38°56' E 015°09'7 9.9
2017-Sep-02 01:48N 39°02' E 015°07'19 9.9
2017-Sep-01 23:54N 39°19' E 014°58'80 3.2
2017-Aug-31 22:53N 40°32' E 014°13'0 0.0
2017-Aug-31 22:20N 40°32' E 014°13'3 0.3
2017-Aug-31 12:51N 40°34' E 014°15'1 1.8
2017-Aug-31 12:27N 40°34' E 014°14'0 0.0
2017-Aug-31 12:00N 40°34' E 014°14'0 0.0
2017-Aug-31 11:30N 40°34' E 014°14'0 0.0
2017-Aug-31 11:00N 40°34' E 014°14'0 0.0
2017-Aug-31 10:29N 40°34' E 014°14'0 0.0
2017-Aug-31 09:57N 40°34' E 014°14'0 0.0
2017-Aug-31 09:30N 40°34' E 014°14'0 0.0
2017-Aug-31 08:25N 40°34' E 014°14'0 0.0
2017-Aug-31 07:51N 40°34' E 014°14'0 0.0
2017-Aug-31 07:29N 40°34' E 014°14'1 3.0
2017-Aug-31 07:00N 40°35' E 014°12'612.0
2017-Aug-31 06:30N 40°36' E 014°05'611.9
2017-Aug-31 06:01N 40°37' E 013°57'1712.0
2017-Aug-31 04:38N 40°40' E 013°36'212.2
2017-Aug-31 04:30N 40°40' E 013°34'612.3
2017-Aug-31 04:01N 40°41' E 013°26'6112.1
2017-Aug-30 22:57N 40°51' E 012°06'712.1
2017-Aug-30 22:21N 40°52' E 011°57'1712.4
2017-Aug-30 20:56N 40°55' E 011°34'512.4
2017-Aug-30 20:31N 40°56' E 011°27'612.4
2017-Aug-30 20:00N 40°57' E 011°19'812.3
2017-Aug-30 19:22N 40°58' E 011°09'1211.9
2017-Aug-30 18:22N 41°01' E 010°53'5611.3
2017-Aug-30 13:24N 41°20' E 009°43'3 7.1
2017-Aug-30 13:00N 41°21' E 009°40'2411.4
2017-Aug-30 10:54N 41°45' E 009°40'1210.2
2017-Aug-30 09:45N 41°56' E 009°40'2610.0
2017-Aug-30 07:09N 42°22' E 009°40'6 9.7
2017-Aug-30 06:32N 42°28' E 009°40'0 9.7
2017-Aug-30 06:30N 42°29' E 009°40'510.6
2017-Aug-30 06:00N 42°34' E 009°39'612.2
2017-Aug-30 05:30N 42°40' E 009°39'612.4
2017-Aug-30 05:00N 42°46' E 009°38'812.3
2017-Aug-30 04:23N 42°54' E 009°36'512.3
2017-Aug-30 04:00N 42°58' E 009°35'611.5
2017-Aug-30 03:30N 43°04' E 009°33'510.6
2017-Aug-30 03:00N 43°08' E 009°29'611.3
2017-Aug-30 02:30N 43°10' E 009°22'612.7
2017-Aug-30 02:00N 43°13' E 009°14'713.1
2017-Aug-30 01:30N 43°16' E 009°05'713.2
2017-Aug-30 01:00N 43°18' E 008°57'713.0
2017-Aug-30 00:30N 43°20' E 008°49'713.1
2017-Aug-29 23:58N 43°23' E 008°40'813.1
2017-Aug-29 23:23N 43°26' E 008°30'513.1
2017-Aug-29 23:01N 43°28' E 008°24'612.8
2017-Aug-29 22:31N 43°30' E 008°15'612.8
2017-Aug-29 22:00N 43°32' E 008°07'1312.5
2017-Aug-29 20:57N 43°38' E 007°51'1312.6
2017-Aug-29 19:56N 43°42' E 007°34'7 0.5
2017-Aug-29 05:31N 43°43' E 007°24'0 0.0
2017-Aug-29 05:22N 43°43' E 007°24'0 0.0
2017-Aug-29 04:55N 43°43' E 007°24'0 0.0
2017-Aug-29 03:49N 43°43' E 007°24'0 0.0
2017-Aug-29 03:25N 43°43' E 007°24'0 0.0
2017-Aug-29 02:58N 43°43' E 007°24'0 0.0
2017-Aug-29 02:13N 43°43' E 007°24'0 0.0
2017-Aug-28 19:22N 43°43' E 007°24'0 0.0
2017-Aug-28 18:55N 43°43' E 007°24'0 0.0
2017-Aug-28 17:58N 43°43' E 007°24'0 0.0
2017-Aug-28 16:34N 43°43' E 007°24'0 0.0
2017-Aug-28 15:31N 43°43' E 007°24'0 0.0
2017-Aug-28 11:34N 43°43' E 007°24'0 0.0
2017-Aug-28 11:25N 43°43' E 007°24'0 0.0
2017-Aug-28 10:55N 43°43' E 007°24'0 0.0
2017-Aug-28 09:13N 43°43' E 007°24'1 2.6
2017-Aug-28 09:00N 43°42' E 007°24'4 7.7
2017-Aug-28 08:29N 43°40' E 007°19'2 0.1
2017-Aug-27 07:50N 43°40' E 007°17'3 8.4
2017-Aug-27 07:30N 43°38' E 007°14'4 8.3
2017-Aug-27 07:00N 43°35' E 007°10'2 0.2
2017-Aug-26 21:51N 43°34' E 007°09'0 0.0
2017-Aug-26 21:15N 43°34' E 007°09'0 0.0
2017-Aug-26 20:57N 43°34' E 007°09'0 0.0
2017-Aug-26 20:27N 43°34' E 007°09'0 0.0
2017-Aug-26 19:45N 43°34' E 007°09'0 0.0
2017-Aug-26 19:27N 43°34' E 007°09'0 0.0
2017-Aug-26 18:51N 43°34' E 007°09'0 0.0
2017-Aug-26 17:27N 43°34' E 007°09'0 0.0
2017-Aug-26 16:51N 43°34' E 007°09'0 0.0
2017-Aug-26 15:21N 43°34' E 007°09'0 0.0
2017-Aug-26 14:51N 43°34' E 007°09'0 0.0
2017-Aug-26 13:51N 43°34' E 007°09'0 0.0
2017-Aug-26 12:45N 43°34' E 007°09'0 0.0
2017-Aug-26 12:27N 43°34' E 007°09'0 0.0
2017-Aug-26 11:39N 43°34' E 007°09'0 0.0
2017-Aug-26 11:27N 43°34' E 007°09'0 0.0
2017-Aug-26 10:57N 43°34' E 007°09'0 0.0
2017-Aug-26 10:27N 43°34' E 007°09'0 0.0
2017-Aug-26 08:51N 43°34' E 007°09'0 0.1
2017-Aug-26 08:15N 43°34' E 007°09'0 0.0
2017-Aug-26 08:00N 43°34' E 007°09'2 3.6
2017-Aug-26 07:30N 43°32' E 007°10'510.7
2017-Aug-26 07:00N 43°28' E 007°06'510.8
2017-Aug-26 06:30N 43°23' E 007°01'611.1
2017-Aug-26 05:57N 43°18' E 006°56'510.9
2017-Aug-26 05:28N 43°14' E 006°52'610.9
2017-Aug-26 04:57N 43°09' E 006°48'510.9
2017-Aug-26 04:30N 43°05' E 006°45'5 9.1
2017-Aug-26 04:00N 43°02' E 006°40'611.0
2017-Aug-26 03:30N 42°59' E 006°34'611.9
2017-Aug-26 03:00N 42°55' E 006°28'610.8
2017-Aug-26 02:28N 42°53' E 006°21'510.8
2017-Aug-26 02:00N 42°50' E 006°14'511.0
2017-Aug-26 01:30N 42°48' E 006°08'711.2
2017-Aug-26 00:54N 42°45' E 005°60'511.4
2017-Aug-26 00:30N 42°43' E 005°54'611.5
2017-Aug-26 00:00N 42°40' E 005°48'611.8
2017-Aug-25 23:30N 42°37' E 005°41'611.8
2017-Aug-25 23:00N 42°34' E 005°34'611.7
2017-Aug-25 22:30N 42°32' E 005°26'612.1
2017-Aug-25 22:00N 42°30' E 005°19'612.3
2017-Aug-25 21:30N 42°27' E 005°11'612.3
2017-Aug-25 21:00N 42°24' E 005°04'612.1
2017-Aug-25 20:30N 42°21' E 004°57'612.2
2017-Aug-25 20:00N 42°18' E 004°49'612.0
2017-Aug-25 19:30N 42°16' E 004°42'611.9
2017-Aug-25 19:00N 42°13' E 004°35'611.7
2017-Aug-25 18:30N 42°10' E 004°28'611.8
2017-Aug-25 18:00N 42°08' E 004°21'612.0
2017-Aug-25 17:30N 42°05' E 004°13'611.9
2017-Aug-25 17:00N 42°02' E 004°06'611.4
2017-Aug-25 16:30N 41°60' E 003°59'611.3
2017-Aug-25 16:00N 41°57' E 003°53'611.1
2017-Aug-25 15:30N 41°55' E 003°46'611.1
2017-Aug-25 15:00N 41°52' E 003°39'1211.5
2017-Aug-25 14:00N 41°47' E 003°26'612.2
2017-Aug-25 13:30N 41°44' E 003°18'611.9
2017-Aug-25 12:58N 41°41' E 003°10'612.7
2017-Aug-25 12:30N 41°39' E 003°03'813.2
2017-Aug-25 11:56N 41°36' E 002°54'612.9
2017-Aug-25 11:30N 41°33' E 002°48'612.7
2017-Aug-25 11:00N 41°30' E 002°40'712.5
2017-Aug-25 10:25N 41°27' E 002°32'512.5
2017-Aug-25 10:00N 41°24' E 002°26'612.5
2017-Aug-25 09:30N 41°22' E 002°18'510.3
2017-Aug-25 09:00N 41°21' E 002°11'2 3.1
2017-Aug-25 08:30N 41°23' E 002°11'0 0.0
2017-Aug-23 14:26N 41°23' E 002°11'  
Track history (hours):
 
Tides and Currents Weather Stations Pressure Air Temp Water Temp Dewpoint Dewpoint Depression Visibility Wind Speed Wind Dir Waves Ship Positions

Golden Odyssey

Last reported at 2017-Sep-02 12:59 UTC. Time now 2017-Sep-22 04:39 UTC.
Position N 37°55' E 016°16'.
Warning: this ship's position is 19 days out of date.

Length 124 m; draft 4.9 m.

Type: Pleasure craft. MMSI: 310724000.

Date/timePositionNaut miles runAvg speedWind from/ knotsBaromVisibWave heightAir tempDewpointWater temp
2017-Sep-02 12:59N 37°55' E 016°16'612.6
2017-Sep-02 12:29N 37°53' E 016°09'612.3
2017-Sep-02 11:58N 37°51' E 016°01'612.4
2017-Sep-02 11:30N 37°51' E 015°54'612.2
2017-Sep-02 11:01N 37°51' E 015°46'611.7
2017-Sep-02 10:30N 37°54' E 015°39'510.1
2017-Sep-02 10:01N 37°58' E 015°35'611.6
2017-Sep-02 09:30N 38°03' E 015°34'611.9
2017-Sep-02 09:00N 38°09' E 015°35'611.4
2017-Sep-02 08:30N 38°15' E 015°37'510.6
2017-Sep-02 08:01N 38°20' E 015°39'612.9
2017-Sep-02 07:31N 38°25' E 015°35'712.8
2017-Sep-02 07:00N 38°31' E 015°31'612.6
2017-Sep-02 06:30N 38°36' E 015°26'712.7
2017-Sep-02 05:59N 38°41' E 015°21'612.6
2017-Sep-02 05:31N 38°44' E 015°15'7 3.1
2017-Sep-02 03:19N 38°51' E 015°11'1 4.0
2017-Sep-02 03:01N 38°52' E 015°11'4 7.1
2017-Sep-02 02:28N 38°56' E 015°09'7 9.9
2017-Sep-02 01:48N 39°02' E 015°07'19 9.9
2017-Sep-01 23:54N 39°19' E 014°58'80 3.2
2017-Aug-31 22:53N 40°32' E 014°13'0 0.0
2017-Aug-31 22:20N 40°32' E 014°13'3 0.3
2017-Aug-31 12:51N 40°34' E 014°15'1 1.8
2017-Aug-31 12:27N 40°34' E 014°14'0 0.0
2017-Aug-31 12:00N 40°34' E 014°14'0 0.0
2017-Aug-31 11:30N 40°34' E 014°14'0 0.0
2017-Aug-31 11:00N 40°34' E 014°14'0 0.0
2017-Aug-31 10:29N 40°34' E 014°14'0 0.0
2017-Aug-31 09:57N 40°34' E 014°14'0 0.0
2017-Aug-31 09:30N 40°34' E 014°14'0 0.0
2017-Aug-31 08:25N 40°34' E 014°14'0 0.0
2017-Aug-31 07:51N 40°34' E 014°14'0 0.0
2017-Aug-31 07:29N 40°34' E 014°14'1 3.0
2017-Aug-31 07:00N 40°35' E 014°12'612.0
2017-Aug-31 06:30N 40°36' E 014°05'611.9
2017-Aug-31 06:01N 40°37' E 013°57'1712.0
2017-Aug-31 04:38N 40°40' E 013°36'212.2
2017-Aug-31 04:30N 40°40' E 013°34'612.3
2017-Aug-31 04:01N 40°41' E 013°26'6112.1
2017-Aug-30 22:57N 40°51' E 012°06'712.1
2017-Aug-30 22:21N 40°52' E 011°57'1712.4
2017-Aug-30 20:56N 40°55' E 011°34'512.4
2017-Aug-30 20:31N 40°56' E 011°27'612.4
2017-Aug-30 20:00N 40°57' E 011°19'812.3
2017-Aug-30 19:22N 40°58' E 011°09'1211.9
2017-Aug-30 18:22N 41°01' E 010°53'5611.3
2017-Aug-30 13:24N 41°20' E 009°43'3 7.1
2017-Aug-30 13:00N 41°21' E 009°40'2411.4
2017-Aug-30 10:54N 41°45' E 009°40'1210.2
2017-Aug-30 09:45N 41°56' E 009°40'2610.0
2017-Aug-30 07:09N 42°22' E 009°40'6 9.7
2017-Aug-30 06:32N 42°28' E 009°40'0 9.7
2017-Aug-30 06:30N 42°29' E 009°40'510.6
2017-Aug-30 06:00N 42°34' E 009°39'612.2
2017-Aug-30 05:30N 42°40' E 009°39'612.4
2017-Aug-30 05:00N 42°46' E 009°38'812.3
2017-Aug-30 04:23N 42°54' E 009°36'512.3
2017-Aug-30 04:00N 42°58' E 009°35'611.5
2017-Aug-30 03:30N 43°04' E 009°33'510.6
2017-Aug-30 03:00N 43°08' E 009°29'611.3
2017-Aug-30 02:30N 43°10' E 009°22'612.7
2017-Aug-30 02:00N 43°13' E 009°14'713.1
2017-Aug-30 01:30N 43°16' E 009°05'713.2
2017-Aug-30 01:00N 43°18' E 008°57'713.0
2017-Aug-30 00:30N 43°20' E 008°49'713.1
2017-Aug-29 23:58N 43°23' E 008°40'813.1
2017-Aug-29 23:23N 43°26' E 008°30'513.1
2017-Aug-29 23:01N 43°28' E 008°24'612.8
2017-Aug-29 22:31N 43°30' E 008°15'612.8
2017-Aug-29 22:00N 43°32' E 008°07'1312.5
2017-Aug-29 20:57N 43°38' E 007°51'1312.6
2017-Aug-29 19:56N 43°42' E 007°34'7 0.5
2017-Aug-29 05:31N 43°43' E 007°24'0 0.0
2017-Aug-29 05:22N 43°43' E 007°24'0 0.0
2017-Aug-29 04:55N 43°43' E 007°24'0 0.0
2017-Aug-29 03:49N 43°43' E 007°24'0 0.0
2017-Aug-29 03:25N 43°43' E 007°24'0 0.0
2017-Aug-29 02:58N 43°43' E 007°24'0 0.0
2017-Aug-29 02:13N 43°43' E 007°24'0 0.0
2017-Aug-28 19:22N 43°43' E 007°24'0 0.0
2017-Aug-28 18:55N 43°43' E 007°24'0 0.0
2017-Aug-28 17:58N 43°43' E 007°24'0 0.0
2017-Aug-28 16:34N 43°43' E 007°24'0 0.0
2017-Aug-28 15:31N 43°43' E 007°24'0 0.0
2017-Aug-28 11:34N 43°43' E 007°24'0 0.0
2017-Aug-28 11:25N 43°43' E 007°24'0 0.0
2017-Aug-28 10:55N 43°43' E 007°24'0 0.0
2017-Aug-28 09:13N 43°43' E 007°24'1 2.6
2017-Aug-28 09:00N 43°42' E 007°24'4 7.7
2017-Aug-28 08:29N 43°40' E 007°19'2 0.1
2017-Aug-27 07:50N 43°40' E 007°17'3 8.4
2017-Aug-27 07:30N 43°38' E 007°14'4 8.3
2017-Aug-27 07:00N 43°35' E 007°10'2 0.2
2017-Aug-26 21:51N 43°34' E 007°09'0 0.0
2017-Aug-26 21:15N 43°34' E 007°09'0 0.0
2017-Aug-26 20:57N 43°34' E 007°09'0 0.0
2017-Aug-26 20:27N 43°34' E 007°09'0 0.0
2017-Aug-26 19:45N 43°34' E 007°09'0 0.0
2017-Aug-26 19:27N 43°34' E 007°09'0 0.0
2017-Aug-26 18:51N 43°34' E 007°09'0 0.0
2017-Aug-26 17:27N 43°34' E 007°09'0 0.0
2017-Aug-26 16:51N 43°34' E 007°09'0 0.0
2017-Aug-26 15:21N 43°34' E 007°09'0 0.0
2017-Aug-26 14:51N 43°34' E 007°09'0 0.0
2017-Aug-26 13:51N 43°34' E 007°09'0 0.0
2017-Aug-26 12:45N 43°34' E 007°09'0 0.0
2017-Aug-26 12:27N 43°34' E 007°09'0 0.0
2017-Aug-26 11:39N 43°34' E 007°09'0 0.0
2017-Aug-26 11:27N 43°34' E 007°09'0 0.0
2017-Aug-26 10:57N 43°34' E 007°09'0 0.0
2017-Aug-26 10:27N 43°34' E 007°09'0 0.0
2017-Aug-26 08:51N 43°34' E 007°09'0 0.1
2017-Aug-26 08:15N 43°34' E 007°09'0 0.0
2017-Aug-26 08:00N 43°34' E 007°09'2 3.6
2017-Aug-26 07:30N 43°32' E 007°10'510.7
2017-Aug-26 07:00N 43°28' E 007°06'510.8
2017-Aug-26 06:30N 43°23' E 007°01'611.1
2017-Aug-26 05:57N 43°18' E 006°56'510.9
2017-Aug-26 05:28N 43°14' E 006°52'610.9
2017-Aug-26 04:57N 43°09' E 006°48'510.9
2017-Aug-26 04:30N 43°05' E 006°45'5 9.1
2017-Aug-26 04:00N 43°02' E 006°40'611.0
2017-Aug-26 03:30N 42°59' E 006°34'611.9
2017-Aug-26 03:00N 42°55' E 006°28'610.8
2017-Aug-26 02:28N 42°53' E 006°21'510.8
2017-Aug-26 02:00N 42°50' E 006°14'511.0
2017-Aug-26 01:30N 42°48' E 006°08'711.2
2017-Aug-26 00:54N 42°45' E 005°60'511.4
2017-Aug-26 00:30N 42°43' E 005°54'611.5
2017-Aug-26 00:00N 42°40' E 005°48'611.8
2017-Aug-25 23:30N 42°37' E 005°41'611.8
2017-Aug-25 23:00N 42°34' E 005°34'611.7
2017-Aug-25 22:30N 42°32' E 005°26'612.1
2017-Aug-25 22:00N 42°30' E 005°19'612.3
2017-Aug-25 21:30N 42°27' E 005°11'612.3
2017-Aug-25 21:00N 42°24' E 005°04'612.1
2017-Aug-25 20:30N 42°21' E 004°57'612.2
2017-Aug-25 20:00N 42°18' E 004°49'612.0
2017-Aug-25 19:30N 42°16' E 004°42'611.9
2017-Aug-25 19:00N 42°13' E 004°35'611.7
2017-Aug-25 18:30N 42°10' E 004°28'611.8
2017-Aug-25 18:00N 42°08' E 004°21'612.0
2017-Aug-25 17:30N 42°05' E 004°13'611.9
2017-Aug-25 17:00N 42°02' E 004°06'611.4
2017-Aug-25 16:30N 41°60' E 003°59'611.3
2017-Aug-25 16:00N 41°57' E 003°53'611.1
2017-Aug-25 15:30N 41°55' E 003°46'611.1
2017-Aug-25 15:00N 41°52' E 003°39'1211.5
2017-Aug-25 14:00N 41°47' E 003°26'612.2
2017-Aug-25 13:30N 41°44' E 003°18'611.9
2017-Aug-25 12:58N 41°41' E 003°10'612.7
2017-Aug-25 12:30N 41°39' E 003°03'813.2
2017-Aug-25 11:56N 41°36' E 002°54'612.9
2017-Aug-25 11:30N 41°33' E 002°48'612.7
2017-Aug-25 11:00N 41°30' E 002°40'712.5
2017-Aug-25 10:25N 41°27' E 002°32'512.5
2017-Aug-25 10:00N 41°24' E 002°26'612.5
2017-Aug-25 09:30N 41°22' E 002°18'510.3
2017-Aug-25 09:00N 41°21' E 002°11'2 3.1
2017-Aug-25 08:30N 41°23' E 002°11'0 0.0
2017-Aug-23 14:26N 41°23' E 002°11'  

Dump ship's entire track history